createdAt,value
2017-10-26T00:00:48.730Z,13.29
2017-10-26T00:01:55.562Z,13.33
2017-10-26T00:03:01.667Z,13.27
2017-10-26T00:04:07.570Z,13.30
2017-10-26T00:05:13.661Z,13.31
2017-10-26T00:06:21.423Z,13.32
2017-10-26T00:07:28.329Z,13.37
2017-10-26T00:08:34.489Z,13.38
2017-10-26T00:09:40.749Z,13.42
2017-10-26T00:10:46.918Z,13.49
2017-10-26T00:11:53.043Z,13.53
2017-10-26T00:12:59.164Z,13.51
2017-10-26T00:14:07.216Z,13.51
2017-10-26T00:15:13.349Z,13.49
2017-10-26T00:16:18.776Z,13.46
2017-10-26T00:17:24.670Z,13.48
2017-10-26T00:18:31.799Z,13.53
2017-10-26T00:19:37.727Z,13.57
2017-10-26T00:20:46.903Z,13.51
2017-10-26T00:21:53.012Z,13.49
2017-10-26T00:22:59.090Z,13.54
2017-10-26T00:24:05.231Z,13.53
2017-10-26T00:25:11.325Z,13.50
2017-10-26T00:26:17.440Z,13.51
2017-10-26T00:27:23.577Z,13.49
2017-10-26T00:28:29.563Z,13.48
2017-10-26T00:29:35.703Z,13.42
2017-10-26T00:30:43.467Z,13.40
2017-10-26T00:31:49.567Z,13.29
2017-10-26T00:32:55.566Z,13.25
2017-10-26T00:34:01.711Z,13.30
2017-10-26T00:35:07.641Z,13.34
2017-10-26T00:36:13.739Z,13.27
2017-10-26T00:37:19.855Z,13.26
2017-10-26T00:38:25.982Z,13.23
2017-10-26T00:39:32.100Z,13.21
2017-10-26T00:40:38.226Z,13.20
2017-10-26T00:41:44.478Z,13.17
2017-10-26T00:42:50.589Z,13.16
2017-10-26T00:43:56.359Z,13.17
2017-10-26T00:45:02.290Z,13.06
2017-10-26T00:46:08.141Z,13.11
2017-10-26T00:47:17.391Z,13.14
2017-10-26T00:48:25.887Z,13.11
2017-10-26T00:49:31.969Z,12.98
2017-10-26T00:50:38.068Z,12.98
2017-10-26T00:51:44.122Z,13.03
2017-10-26T00:52:50.265Z,13.06
2017-10-26T00:53:56.417Z,13.01
2017-10-26T00:55:02.505Z,13.13
2017-10-26T00:56:08.588Z,13.09
2017-10-26T00:57:13.993Z,13.14
2017-10-26T00:58:23.492Z,13.16
2017-10-26T00:59:29.595Z,13.08
2017-10-26T01:00:34.932Z,13.08
2017-10-26T01:01:39.100Z,13.00
2017-10-26T01:02:44.491Z,12.98
2017-10-26T01:03:50.571Z,13.00
2017-10-26T01:04:56.440Z,12.99
2017-10-26T01:06:02.515Z,13.03
2017-10-26T01:07:08.598Z,13.06
2017-10-26T01:08:21.351Z,13.06
2017-10-26T01:09:29.184Z,12.99
2017-10-26T01:10:35.625Z,12.94
2017-10-26T01:11:41.761Z,12.92
2017-10-26T01:12:47.845Z,12.98
2017-10-26T01:13:53.992Z,12.94
2017-10-26T01:14:59.799Z,12.90
2017-10-26T01:16:04.955Z,12.95
2017-10-26T01:17:10.837Z,12.91
2017-10-26T01:18:16.895Z,12.90
2017-10-26T01:19:22.711Z,12.80
2017-10-26T01:20:27.876Z,12.87
2017-10-26T01:21:33.212Z,12.91
2017-10-26T01:22:39.093Z,12.98
2017-10-26T01:23:44.440Z,13.02
2017-10-26T01:24:49.851Z,13.01
2017-10-26T01:25:55.214Z,12.91
2017-10-26T01:27:00.601Z,12.90
2017-10-26T01:28:06.019Z,12.90
2017-10-26T01:29:16.222Z,12.93
2017-10-26T01:30:29.450Z,12.91
2017-10-26T01:31:34.816Z,12.91
2017-10-26T01:32:40.219Z,12.88
2017-10-26T01:33:45.575Z,12.88
2017-10-26T01:34:51.153Z,12.85
2017-10-26T01:35:58.232Z,12.88
2017-10-26T01:37:03.768Z,12.89
2017-10-26T01:38:09.222Z,12.86
2017-10-26T01:39:14.970Z,12.89
2017-10-26T01:40:20.482Z,12.88
2017-10-26T01:41:25.854Z,12.89
2017-10-26T01:42:31.223Z,12.86
2017-10-26T01:43:36.687Z,12.79
2017-10-26T01:44:42.054Z,12.76
2017-10-26T01:45:50.744Z,12.79
2017-10-26T01:46:56.132Z,12.78
2017-10-26T01:48:01.473Z,12.72
2017-10-26T01:49:06.635Z,12.73
2017-10-26T01:50:19.801Z,12.73
2017-10-26T01:51:26.705Z,12.77
2017-10-26T01:52:32.070Z,12.77
2017-10-26T01:53:37.566Z,12.75
2017-10-26T01:54:42.754Z,12.71
2017-10-26T01:55:48.112Z,12.68
2017-10-26T01:56:53.103Z,12.66
2017-10-26T01:57:58.640Z,12.70
2017-10-26T01:59:04.011Z,12.69
2017-10-26T02:00:10.366Z,12.68
2017-10-26T02:01:16.017Z,12.58
2017-10-26T02:02:22.178Z,12.50
2017-10-26T02:03:27.307Z,12.48
2017-10-26T02:04:32.475Z,12.51
2017-10-26T02:05:37.859Z,12.56
2017-10-26T02:06:43.049Z,12.52
2017-10-26T02:07:48.720Z,12.53
2017-10-26T02:08:54.961Z,12.54
2017-10-26T02:10:00.318Z,12.54
2017-10-26T02:11:17.890Z,12.51
2017-10-26T02:12:24.572Z,12.49
2017-10-26T02:13:30.337Z,12.47
2017-10-26T02:14:35.733Z,12.43
2017-10-26T02:15:41.453Z,12.50
2017-10-26T02:16:46.796Z,12.45
2017-10-26T02:17:52.161Z,12.49
2017-10-26T02:18:57.544Z,12.49
2017-10-26T02:20:03.323Z,12.50
2017-10-26T02:21:08.692Z,12.47
2017-10-26T02:22:14.075Z,12.47
2017-10-26T02:23:19.774Z,12.44
2017-10-26T02:24:25.208Z,12.30
2017-10-26T02:25:30.588Z,12.26
2017-10-26T02:26:36.722Z,12.24
2017-10-26T02:27:42.826Z,12.29
2017-10-26T02:29:00.851Z,12.32
2017-10-26T02:30:17.669Z,12.35
2017-10-26T02:31:34.665Z,12.40
2017-10-26T02:32:40.822Z,12.41
2017-10-26T02:33:46.928Z,12.44
2017-10-26T02:34:53.150Z,12.44
2017-10-26T02:35:58.846Z,12.30
2017-10-26T02:37:04.542Z,12.31
2017-10-26T02:38:10.282Z,12.31
2017-10-26T02:39:16.387Z,12.29
2017-10-26T02:40:22.518Z,12.28
2017-10-26T02:41:28.622Z,12.17
2017-10-26T02:42:34.715Z,12.19
2017-10-26T02:43:43.330Z,12.22
2017-10-26T02:44:49.727Z,12.16
2017-10-26T02:45:55.999Z,12.06
2017-10-26T02:47:02.062Z,12.15
2017-10-26T02:48:08.126Z,12.11
2017-10-26T02:49:14.404Z,12.15
2017-10-26T02:50:20.646Z,12.22
2017-10-26T02:51:26.748Z,12.19
2017-10-26T02:52:32.820Z,12.18
2017-10-26T02:53:38.239Z,12.23
2017-10-26T02:54:44.455Z,12.19
2017-10-26T02:55:50.551Z,12.19
2017-10-26T02:56:56.635Z,12.23
2017-10-26T02:58:02.757Z,12.22
2017-10-26T02:59:08.559Z,12.18
2017-10-26T03:00:13.970Z,12.25
2017-10-26T03:01:19.190Z,12.26
2017-10-26T03:02:24.340Z,12.17
2017-10-26T03:03:29.503Z,12.21
2017-10-26T03:04:34.877Z,12.24
2017-10-26T03:05:40.469Z,12.30
2017-10-26T03:06:48.728Z,12.34
2017-10-26T03:07:54.842Z,12.29
2017-10-26T03:09:01.963Z,12.23
2017-10-26T03:10:08.070Z,12.18
2017-10-26T03:11:14.159Z,12.18
2017-10-26T03:12:19.894Z,12.13
2017-10-26T03:13:25.967Z,12.19
2017-10-26T03:14:32.136Z,12.22
2017-10-26T03:15:40.340Z,12.20
2017-10-26T03:16:46.456Z,12.14
2017-10-26T03:17:52.638Z,12.07
2017-10-26T03:18:58.699Z,12.01
2017-10-26T03:20:04.780Z,12.01
2017-10-26T03:21:10.928Z,11.95
2017-10-26T03:22:17.039Z,11.91
2017-10-26T03:23:23.288Z,11.91
2017-10-26T03:24:29.860Z,11.98
2017-10-26T03:25:36.630Z,11.95
2017-10-26T03:26:43.536Z,12.01
2017-10-26T03:27:51.021Z,12.04
2017-10-26T03:28:58.604Z,12.05
2017-10-26T03:30:06.477Z,12.04
2017-10-26T03:31:13.689Z,11.99
2017-10-26T03:32:21.483Z,11.97
2017-10-26T03:33:28.524Z,11.94
2017-10-26T03:34:40.675Z,11.88
2017-10-26T03:35:47.999Z,11.95
2017-10-26T03:36:55.828Z,11.89
2017-10-26T03:38:02.882Z,11.91
2017-10-26T03:39:09.869Z,11.94
2017-10-26T03:40:17.386Z,11.97
2017-10-26T03:41:25.951Z,11.97
2017-10-26T03:42:36.653Z,11.98
2017-10-26T03:43:43.802Z,12.08
2017-10-26T03:44:50.907Z,12.04
2017-10-26T03:45:58.054Z,12.12
2017-10-26T03:47:05.501Z,12.09
2017-10-26T03:48:14.097Z,11.94
2017-10-26T03:49:21.169Z,11.99
2017-10-26T03:50:29.414Z,11.96
2017-10-26T03:51:37.617Z,11.95
2017-10-26T03:52:45.054Z,12.00
2017-10-26T03:53:52.506Z,12.02
2017-10-26T03:55:01.031Z,11.94
2017-10-26T03:56:08.457Z,11.92
2017-10-26T03:57:15.448Z,11.96
2017-10-26T03:58:22.916Z,11.94
2017-10-26T03:59:30.125Z,11.97
2017-10-26T04:00:38.292Z,12.01
2017-10-26T04:01:45.632Z,11.96
2017-10-26T04:02:56.667Z,11.84
2017-10-26T04:04:04.627Z,11.90
2017-10-26T04:05:11.808Z,11.86
2017-10-26T04:06:19.823Z,11.85
2017-10-26T04:07:29.007Z,11.84
2017-10-26T04:08:37.287Z,11.89
2017-10-26T04:09:49.065Z,11.85
2017-10-26T04:10:55.860Z,11.80
2017-10-26T04:12:01.791Z,11.73
2017-10-26T04:13:07.907Z,11.65
2017-10-26T04:14:14.056Z,11.78
2017-10-26T04:15:20.157Z,11.76
2017-10-26T04:16:26.635Z,11.80
2017-10-26T04:17:33.474Z,11.79
2017-10-26T04:18:42.323Z,11.84
2017-10-26T04:19:50.643Z,11.85
2017-10-26T04:20:57.139Z,11.85
2017-10-26T04:22:03.209Z,11.88
2017-10-26T04:23:09.139Z,11.87
2017-10-26T04:24:15.434Z,11.89
2017-10-26T04:25:21.597Z,11.88
2017-10-26T04:26:27.555Z,11.85
2017-10-26T04:27:33.637Z,11.87
2017-10-26T04:28:39.741Z,11.87
2017-10-26T04:29:45.840Z,11.89
2017-10-26T04:30:53.316Z,11.90
2017-10-26T04:31:58.329Z,11.90
2017-10-26T04:33:03.871Z,11.94
2017-10-26T04:34:09.376Z,11.94
2017-10-26T04:35:15.457Z,11.94
2017-10-26T04:36:21.548Z,11.94
2017-10-26T04:37:28.533Z,12.00
2017-10-26T04:38:34.423Z,12.00
2017-10-26T04:39:40.544Z,11.94
2017-10-26T04:40:46.643Z,11.92
2017-10-26T04:41:52.752Z,11.90
2017-10-26T04:42:58.834Z,11.93
2017-10-26T04:44:04.913Z,11.96
2017-10-26T04:45:11.204Z,11.99
2017-10-26T04:46:17.308Z,12.02
2017-10-26T04:47:23.425Z,12.04
2017-10-26T04:48:29.176Z,12.01
2017-10-26T04:49:35.265Z,12.07
2017-10-26T04:50:41.370Z,12.10
2017-10-26T04:51:47.448Z,12.13
2017-10-26T04:52:53.521Z,12.17
2017-10-26T04:54:00.351Z,12.26
2017-10-26T04:55:07.622Z,12.34
2017-10-26T04:56:15.216Z,12.30
2017-10-26T04:57:22.535Z,12.22
2017-10-26T04:58:28.636Z,12.25
2017-10-26T04:59:35.428Z,12.20
2017-10-26T05:00:42.344Z,12.33
2017-10-26T05:01:49.020Z,12.29
2017-10-26T05:02:55.348Z,12.31
2017-10-26T05:04:02.074Z,12.23
2017-10-26T05:05:08.302Z,12.28
2017-10-26T05:06:15.011Z,12.32
2017-10-26T05:07:21.476Z,12.30
2017-10-26T05:08:28.603Z,12.27
2017-10-26T05:09:34.838Z,12.26
2017-10-26T05:10:41.055Z,12.32
2017-10-26T05:11:47.177Z,12.28
2017-10-26T05:12:53.255Z,12.21
2017-10-26T05:13:59.425Z,12.33
2017-10-26T05:15:05.552Z,12.31
2017-10-26T05:16:11.764Z,12.38
2017-10-26T05:17:17.898Z,12.35
2017-10-26T05:18:24.020Z,12.32
2017-10-26T05:19:30.074Z,12.27
2017-10-26T05:20:38.240Z,12.31
2017-10-26T05:21:46.615Z,12.42
2017-10-26T05:22:52.748Z,12.42
2017-10-26T05:23:58.877Z,12.36
2017-10-26T05:25:05.036Z,12.34
2017-10-26T05:26:11.148Z,12.32
2017-10-26T05:27:17.276Z,12.29
2017-10-26T05:28:28.895Z,12.33
2017-10-26T05:29:34.795Z,12.33
2017-10-26T05:30:40.943Z,12.28
2017-10-26T05:31:47.066Z,12.30
2017-10-26T05:32:53.114Z,12.25
2017-10-26T05:33:58.865Z,12.29
2017-10-26T05:35:04.498Z,12.29
2017-10-26T05:36:10.257Z,12.29
2017-10-26T05:37:16.392Z,12.25
2017-10-26T05:38:21.809Z,12.28
2017-10-26T05:39:27.508Z,12.26
2017-10-26T05:40:33.289Z,12.28
2017-10-26T05:41:39.069Z,12.25
2017-10-26T05:42:44.769Z,12.25
2017-10-26T05:43:50.673Z,12.26
2017-10-26T05:44:56.733Z,12.26
2017-10-26T05:46:02.873Z,12.22
2017-10-26T05:47:09.019Z,12.21
2017-10-26T05:48:14.346Z,12.31
2017-10-26T05:49:20.469Z,12.28
2017-10-26T05:50:26.594Z,12.23
2017-10-26T05:51:32.114Z,12.16
2017-10-26T05:52:38.208Z,12.20
2017-10-26T05:53:44.312Z,12.22
2017-10-26T05:54:50.358Z,12.21
2017-10-26T05:55:56.478Z,12.18
2017-10-26T05:57:03.319Z,12.24
2017-10-26T05:58:09.429Z,12.22
2017-10-26T05:59:15.961Z,12.13
2017-10-26T06:00:21.976Z,12.11
2017-10-26T06:01:28.027Z,12.12
2017-10-26T06:02:34.132Z,12.12
2017-10-26T06:03:40.253Z,12.09
2017-10-26T06:04:46.366Z,12.10
2017-10-26T06:05:52.437Z,12.08
2017-10-26T06:06:58.547Z,12.11
2017-10-26T06:08:04.640Z,12.14
2017-10-26T06:09:10.543Z,12.06
2017-10-26T06:10:16.449Z,12.15
2017-10-26T06:11:22.842Z,12.08
2017-10-26T06:12:28.978Z,12.07
2017-10-26T06:13:35.085Z,12.10
2017-10-26T06:14:41.191Z,12.14
2017-10-26T06:15:47.294Z,12.19
2017-10-26T06:16:53.367Z,12.17
2017-10-26T06:17:59.511Z,12.20
2017-10-26T06:19:05.652Z,12.13
2017-10-26T06:20:11.731Z,12.12
2017-10-26T06:21:17.809Z,12.06
2017-10-26T06:22:24.122Z,12.02
2017-10-26T06:23:30.209Z,12.10
2017-10-26T06:24:36.364Z,12.09
2017-10-26T06:25:42.470Z,12.03
2017-10-26T06:26:48.602Z,12.07
2017-10-26T06:27:54.521Z,12.06
2017-10-26T06:29:00.652Z,12.10
2017-10-26T06:30:06.763Z,12.11
2017-10-26T06:31:12.848Z,12.07
2017-10-26T06:32:18.792Z,12.08
2017-10-26T06:33:24.876Z,12.13
2017-10-26T06:34:30.971Z,12.19
2017-10-26T06:35:37.063Z,12.21
2017-10-26T06:36:43.133Z,12.21
2017-10-26T06:37:49.268Z,12.21
2017-10-26T06:38:55.399Z,12.23
2017-10-26T06:40:01.670Z,12.18
2017-10-26T06:41:07.773Z,12.28
2017-10-26T06:42:13.911Z,12.30
2017-10-26T06:43:19.829Z,12.30
2017-10-26T06:44:26.342Z,12.32
2017-10-26T06:45:32.256Z,12.36
2017-10-26T06:46:38.357Z,12.36
2017-10-26T06:47:44.470Z,12.32
2017-10-26T06:48:50.840Z,12.33
2017-10-26T06:49:56.800Z,12.38
2017-10-26T06:51:02.686Z,12.42
2017-10-26T06:52:12.331Z,12.46
2017-10-26T06:53:19.479Z,12.43
2017-10-26T06:54:25.536Z,12.51
2017-10-26T06:55:31.635Z,12.46
2017-10-26T06:56:37.553Z,12.50
2017-10-26T06:57:43.474Z,12.57
2017-10-26T06:58:49.537Z,12.59
2017-10-26T06:59:55.403Z,12.57
2017-10-26T07:01:01.475Z,12.70
2017-10-26T07:02:07.339Z,12.78
2017-10-26T07:03:13.432Z,12.84
2017-10-26T07:04:19.493Z,12.85
2017-10-26T07:05:25.840Z,12.88
2017-10-26T07:06:31.919Z,12.85
2017-10-26T07:07:38.091Z,12.84
2017-10-26T07:08:44.040Z,12.91
2017-10-26T07:09:50.155Z,12.91
2017-10-26T07:10:56.238Z,12.98
2017-10-26T07:12:02.384Z,12.98
2017-10-26T07:13:08.498Z,12.97
2017-10-26T07:14:14.565Z,12.98
2017-10-26T07:15:20.676Z,12.99
2017-10-26T07:16:26.440Z,13.06
2017-10-26T07:17:35.459Z,13.05
2017-10-26T07:18:41.554Z,13.15
2017-10-26T07:19:47.615Z,13.19
2017-10-26T07:20:53.728Z,13.09
2017-10-26T07:21:59.822Z,13.14
2017-10-26T07:23:05.922Z,13.14
2017-10-26T07:24:12.006Z,13.19
2017-10-26T07:25:24.967Z,13.22
2017-10-26T07:26:31.129Z,13.24
2017-10-26T07:27:37.239Z,13.28
2017-10-26T07:28:44.052Z,13.30
2017-10-26T07:29:49.907Z,13.27
2017-10-26T07:30:59.881Z,13.25
2017-10-26T07:32:05.754Z,13.35
2017-10-26T07:33:11.958Z,13.27
2017-10-26T07:34:18.098Z,13.25
2017-10-26T07:35:24.236Z,13.24
2017-10-26T07:36:29.962Z,13.31
2017-10-26T07:37:36.078Z,13.33
2017-10-26T07:38:42.159Z,13.35
2017-10-26T07:39:47.887Z,13.38
2017-10-26T07:40:54.035Z,13.47
2017-10-26T07:42:00.107Z,13.52
2017-10-26T07:43:05.848Z,13.53
2017-10-26T07:44:11.962Z,13.56
2017-10-26T07:45:17.665Z,13.60
2017-10-26T07:46:23.384Z,13.57
2017-10-26T07:47:29.465Z,13.54
2017-10-26T07:48:35.158Z,13.53
2017-10-26T07:49:41.270Z,13.60
2017-10-26T07:50:47.361Z,13.58
2017-10-26T07:51:53.495Z,13.59
2017-10-26T07:52:59.574Z,13.63
2017-10-26T07:54:05.343Z,13.66
2017-10-26T07:55:11.432Z,13.76
2017-10-26T07:56:17.536Z,13.74
2017-10-26T07:57:23.672Z,13.80
2017-10-26T07:58:29.761Z,13.84
2017-10-26T07:59:35.911Z,13.73
2017-10-26T08:00:41.718Z,13.77
2017-10-26T08:01:47.223Z,13.75
2017-10-26T08:02:53.309Z,13.80
2017-10-26T08:03:59.141Z,13.80
2017-10-26T08:05:04.555Z,13.80
2017-10-26T08:06:10.648Z,13.81
2017-10-26T08:07:16.743Z,13.85
2017-10-26T08:08:22.501Z,13.75
2017-10-26T08:09:28.220Z,13.81
2017-10-26T08:10:34.311Z,13.87
2017-10-26T08:11:40.479Z,13.84
2017-10-26T08:12:46.593Z,13.83
2017-10-26T08:13:52.663Z,13.83
2017-10-26T08:14:58.797Z,13.86
2017-10-26T08:16:04.586Z,13.91
2017-10-26T08:17:10.676Z,13.84
2017-10-26T08:18:16.784Z,13.82
2017-10-26T08:19:22.885Z,13.91
2017-10-26T08:20:28.261Z,13.90
2017-10-26T08:21:33.627Z,13.94
2017-10-26T08:22:39.103Z,14.04
2017-10-26T08:23:45.171Z,14.12
2017-10-26T08:24:51.296Z,14.15
2017-10-26T08:25:56.684Z,14.24
2017-10-26T08:27:02.786Z,14.32
2017-10-26T08:28:08.142Z,14.35
2017-10-26T08:29:13.883Z,14.37
2017-10-26T08:30:22.598Z,14.43
2017-10-26T08:31:28.323Z,14.40
2017-10-26T08:32:34.386Z,14.42
2017-10-26T08:33:40.180Z,14.44
2017-10-26T08:34:46.292Z,14.49
2017-10-26T08:35:52.369Z,14.53
2017-10-26T08:36:58.116Z,14.49
2017-10-26T08:38:04.149Z,14.46
2017-10-26T08:39:10.297Z,14.55
2017-10-26T08:40:16.358Z,14.51
2017-10-26T08:41:22.419Z,14.45
2017-10-26T08:42:28.476Z,14.53
2017-10-26T08:43:34.557Z,14.48
2017-10-26T08:44:40.788Z,14.65
2017-10-26T08:45:46.879Z,14.83
2017-10-26T08:46:52.629Z,14.93
2017-10-26T08:47:58.728Z,14.90
2017-10-26T08:49:07.178Z,14.92
2017-10-26T08:50:12.626Z,15.01
2017-10-26T08:51:17.971Z,15.13
2017-10-26T08:52:23.326Z,15.21
2017-10-26T08:53:28.681Z,15.22
2017-10-26T08:54:34.094Z,15.16
2017-10-26T08:55:39.787Z,15.11
2017-10-26T08:56:45.531Z,15.15
2017-10-26T08:57:50.905Z,14.99
2017-10-26T08:58:56.313Z,15.03
2017-10-26T09:00:01.679Z,15.15
2017-10-26T09:01:07.205Z,15.24
2017-10-26T09:02:12.559Z,15.38
2017-10-26T09:03:20.788Z,15.45
2017-10-26T09:04:26.213Z,15.49
2017-10-26T09:05:31.633Z,15.44
2017-10-26T09:06:36.966Z,15.33
2017-10-26T09:07:42.383Z,15.44
2017-10-26T09:08:47.543Z,15.50
2017-10-26T09:09:53.261Z,15.54
2017-10-26T09:10:59.578Z,15.56
2017-10-26T09:12:05.146Z,15.70
2017-10-26T09:13:11.231Z,15.69
2017-10-26T09:14:16.801Z,15.75
2017-10-26T09:15:22.098Z,15.88
2017-10-26T09:16:27.122Z,15.90
2017-10-26T09:17:33.658Z,15.89
2017-10-26T09:18:39.316Z,15.92
2017-10-26T09:19:44.674Z,15.81
2017-10-26T09:20:50.120Z,15.84
2017-10-26T09:21:55.609Z,15.86
2017-10-26T09:23:01.361Z,15.84
2017-10-26T09:24:06.725Z,15.91
2017-10-26T09:25:12.098Z,15.99
2017-10-26T09:26:17.507Z,15.89
2017-10-26T09:27:23.256Z,15.89
2017-10-26T09:28:28.676Z,15.95
2017-10-26T09:29:33.852Z,15.94
2017-10-26T09:30:39.502Z,16.07
2017-10-26T09:31:45.233Z,16.12
2017-10-26T09:32:56.794Z,16.08
2017-10-26T09:34:02.204Z,16.00
2017-10-26T09:35:09.953Z,16.12
2017-10-26T09:36:15.322Z,16.09
2017-10-26T09:37:20.690Z,16.11
2017-10-26T09:38:26.041Z,16.06
2017-10-26T09:39:31.413Z,16.10
2017-10-26T09:40:38.353Z,16.03
2017-10-26T09:41:43.779Z,16.17
2017-10-26T09:42:49.456Z,16.17
2017-10-26T09:43:54.829Z,16.15
2017-10-26T09:45:00.184Z,16.21
2017-10-26T09:46:05.574Z,16.26
2017-10-26T09:47:10.980Z,16.24
2017-10-26T09:48:16.485Z,16.24
2017-10-26T09:49:22.005Z,16.35
2017-10-26T09:50:27.393Z,16.45
2017-10-26T09:51:32.738Z,16.56
2017-10-26T09:52:38.408Z,16.62
2017-10-26T09:53:43.744Z,16.48
2017-10-26T09:54:49.458Z,16.53
2017-10-26T09:55:54.825Z,16.48
2017-10-26T09:57:00.157Z,16.51
2017-10-26T09:58:05.539Z,16.48
2017-10-26T09:59:11.852Z,16.49
2017-10-26T10:00:17.204Z,16.37
2017-10-26T10:01:22.612Z,16.42
2017-10-26T10:02:27.948Z,16.28
2017-10-26T10:03:33.317Z,16.33
2017-10-26T10:04:38.750Z,16.36
2017-10-26T10:05:44.432Z,16.41
2017-10-26T10:06:49.952Z,16.42
2017-10-26T10:07:55.371Z,16.40
2017-10-26T10:09:00.551Z,16.37
2017-10-26T10:10:06.050Z,16.29
2017-10-26T10:11:12.426Z,16.20
2017-10-26T10:12:17.763Z,16.21
2017-10-26T10:13:23.106Z,16.12
2017-10-26T10:14:28.416Z,16.20
2017-10-26T10:15:33.761Z,16.24
2017-10-26T10:16:39.162Z,16.19
2017-10-26T10:17:44.503Z,16.12
2017-10-26T10:18:49.630Z,16.13
2017-10-26T10:20:08.963Z,16.10
2017-10-26T10:21:14.299Z,16.17
2017-10-26T10:22:20.059Z,16.17
2017-10-26T10:23:25.525Z,16.16
2017-10-26T10:24:31.053Z,16.09
2017-10-26T10:25:36.557Z,16.15
2017-10-26T10:26:41.705Z,16.18
2017-10-26T10:27:46.870Z,16.19
2017-10-26T10:28:52.231Z,16.20
2017-10-26T10:29:57.588Z,16.22
2017-10-26T10:31:02.923Z,16.27
2017-10-26T10:32:08.432Z,16.19
2017-10-26T10:33:13.632Z,16.21
2017-10-26T10:34:19.100Z,16.26
2017-10-26T10:35:24.444Z,16.25
2017-10-26T10:36:29.770Z,16.38
2017-10-26T10:37:35.241Z,16.34
2017-10-26T10:38:40.439Z,16.33
2017-10-26T10:39:45.767Z,16.34
2017-10-26T10:40:51.122Z,16.43
2017-10-26T10:41:56.801Z,16.49
2017-10-26T10:43:02.239Z,16.39
2017-10-26T10:44:07.404Z,16.32
2017-10-26T10:45:13.127Z,16.33
2017-10-26T10:46:18.467Z,16.36
2017-10-26T10:47:24.048Z,16.40
2017-10-26T10:48:29.554Z,16.46
2017-10-26T10:49:34.702Z,16.49
2017-10-26T10:50:40.395Z,16.46
2017-10-26T10:51:46.073Z,16.48
2017-10-26T10:52:51.428Z,16.51
2017-10-26T10:53:56.761Z,16.57
2017-10-26T10:55:02.968Z,16.39
2017-10-26T10:56:08.310Z,16.56
2017-10-26T10:57:13.776Z,16.73
2017-10-26T10:58:19.514Z,16.72
2017-10-26T10:59:30.124Z,16.82
2017-10-26T11:00:35.460Z,16.73
2017-10-26T11:01:42.728Z,16.71
2017-10-26T11:02:48.078Z,16.73
2017-10-26T11:03:53.447Z,16.82
2017-10-26T11:04:58.774Z,16.92
2017-10-26T11:06:04.113Z,16.91
2017-10-26T11:07:09.448Z,16.97
2017-10-26T11:08:15.187Z,17.15
2017-10-26T11:09:20.530Z,17.20
2017-10-26T11:10:26.126Z,17.15
2017-10-26T11:11:31.522Z,17.21
2017-10-26T11:12:37.222Z,17.13
2017-10-26T11:13:42.578Z,17.25
2017-10-26T11:14:47.919Z,17.29
2017-10-26T11:15:53.617Z,17.42
2017-10-26T11:16:59.020Z,17.43
2017-10-26T11:18:04.411Z,17.47
2017-10-26T11:19:09.771Z,17.43
2017-10-26T11:20:15.098Z,17.39
2017-10-26T11:21:20.804Z,17.43
2017-10-26T11:22:26.185Z,17.35
2017-10-26T11:23:31.559Z,17.30
2017-10-26T11:24:36.952Z,17.37
2017-10-26T11:25:42.335Z,17.42
2017-10-26T11:26:47.701Z,17.35
2017-10-26T11:27:53.049Z,17.29
2017-10-26T11:28:58.416Z,17.21
2017-10-26T11:30:03.742Z,17.25
2017-10-26T11:31:09.099Z,17.04
2017-10-26T11:32:14.563Z,17.01
2017-10-26T11:33:19.747Z,17.03
2017-10-26T11:34:25.071Z,16.96
2017-10-26T11:35:34.090Z,17.00
2017-10-26T11:36:43.790Z,16.86
2017-10-26T11:37:49.175Z,16.87
2017-10-26T11:38:54.784Z,16.93
2017-10-26T11:40:00.303Z,17.00
2017-10-26T11:41:05.657Z,17.02
2017-10-26T11:42:11.022Z,16.93
2017-10-26T11:43:16.504Z,16.83
2017-10-26T11:44:21.863Z,16.83
2017-10-26T11:45:27.533Z,16.81
2017-10-26T11:46:33.227Z,16.78
2017-10-26T11:47:38.371Z,16.79
2017-10-26T11:48:43.558Z,16.84
2017-10-26T11:49:49.098Z,16.85
2017-10-26T11:50:54.427Z,16.78
2017-10-26T11:51:59.569Z,16.83
2017-10-26T11:53:04.985Z,16.87
2017-10-26T11:54:10.325Z,16.91
2017-10-26T11:55:15.488Z,16.88
2017-10-26T11:56:24.550Z,16.87
2017-10-26T11:57:29.707Z,16.84
2017-10-26T11:58:35.055Z,16.84
2017-10-26T11:59:40.443Z,16.72
2017-10-26T12:00:46.310Z,16.71
2017-10-26T12:01:51.458Z,16.74
2017-10-26T12:02:56.450Z,16.74
2017-10-26T12:04:02.802Z,16.64
2017-10-26T12:05:08.474Z,16.69
2017-10-26T12:06:13.816Z,16.63
2017-10-26T12:07:19.143Z,16.62
2017-10-26T12:08:24.374Z,16.62
2017-10-26T12:09:30.074Z,16.64
2017-10-26T12:10:35.411Z,16.60
2017-10-26T12:11:42.076Z,16.68
2017-10-26T12:12:47.794Z,16.70
2017-10-26T12:13:52.999Z,16.75
2017-10-26T12:14:58.330Z,16.80
2017-10-26T12:16:03.710Z,16.81
2017-10-26T12:17:12.167Z,16.77
2017-10-26T12:18:17.529Z,16.77
2017-10-26T12:19:23.244Z,16.73
2017-10-26T12:20:28.618Z,16.65
2017-10-26T12:21:33.957Z,16.77
2017-10-26T12:22:41.694Z,16.81
2017-10-26T12:23:46.895Z,16.76
2017-10-26T12:24:52.247Z,16.78
2017-10-26T12:25:57.928Z,16.78
2017-10-26T12:27:03.617Z,16.84
2017-10-26T12:28:08.978Z,16.83
2017-10-26T12:29:14.491Z,16.79
2017-10-26T12:30:19.436Z,16.77
2017-10-26T12:31:24.966Z,16.74
2017-10-26T12:32:30.311Z,16.76
2017-10-26T12:33:35.274Z,16.77
2017-10-26T12:34:40.446Z,16.81
2017-10-26T12:35:45.786Z,16.83
2017-10-26T12:36:50.953Z,16.86
2017-10-26T12:37:59.439Z,16.85
2017-10-26T12:39:05.377Z,16.83
2017-10-26T12:40:10.721Z,16.81
2017-10-26T12:41:15.895Z,16.83
2017-10-26T12:42:21.267Z,16.72
2017-10-26T12:43:26.434Z,16.74
2017-10-26T12:44:31.768Z,16.68
2017-10-26T12:45:37.113Z,16.65
2017-10-26T12:46:43.222Z,16.73
2017-10-26T12:47:48.560Z,16.74
2017-10-26T12:48:53.952Z,16.75
2017-10-26T12:49:59.341Z,16.74
2017-10-26T12:51:04.669Z,16.67
2017-10-26T12:52:10.010Z,16.70
2017-10-26T12:53:15.370Z,16.74
2017-10-26T12:54:21.065Z,16.70
2017-10-26T12:55:26.410Z,16.68
2017-10-26T12:56:32.456Z,16.73
2017-10-26T12:57:38.160Z,16.78
2017-10-26T12:58:49.198Z,16.89
2017-10-26T12:59:57.987Z,16.86
2017-10-26T13:01:03.698Z,16.89
2017-10-26T13:02:09.065Z,16.75
2017-10-26T13:03:14.433Z,16.81
2017-10-26T13:04:19.786Z,16.89
2017-10-26T13:05:25.511Z,16.89
2017-10-26T13:06:30.890Z,16.81
2017-10-26T13:07:36.040Z,16.86
2017-10-26T13:08:41.783Z,16.83
2017-10-26T13:09:47.115Z,16.86
2017-10-26T13:10:52.464Z,16.81
2017-10-26T13:11:59.734Z,16.86
2017-10-26T13:13:05.453Z,16.73
2017-10-26T13:14:10.819Z,16.81
2017-10-26T13:15:16.134Z,16.78
2017-10-26T13:16:21.473Z,16.83
2017-10-26T13:17:26.798Z,16.87
2017-10-26T13:18:32.127Z,16.81
2017-10-26T13:19:44.328Z,16.70
2017-10-26T13:20:52.950Z,16.83
2017-10-26T13:21:58.281Z,16.80
2017-10-26T13:23:03.951Z,16.83
2017-10-26T13:24:09.298Z,16.82
2017-10-26T13:25:14.630Z,16.78
2017-10-26T13:26:19.971Z,16.74
2017-10-26T13:27:25.298Z,16.77
2017-10-26T13:28:31.343Z,16.75
2017-10-26T13:29:37.442Z,16.78
2017-10-26T13:30:43.184Z,16.76
2017-10-26T13:31:49.264Z,16.80
2017-10-26T13:32:55.305Z,16.79
2017-10-26T13:34:01.351Z,16.70
2017-10-26T13:35:07.474Z,16.72
2017-10-26T13:36:13.526Z,16.76
2017-10-26T13:37:19.189Z,16.76
2017-10-26T13:38:24.862Z,16.80
2017-10-26T13:39:30.922Z,16.74
2017-10-26T13:40:44.227Z,16.76
2017-10-26T13:41:50.306Z,16.71
2017-10-26T13:42:56.387Z,16.75
2017-10-26T13:44:02.128Z,16.64
2017-10-26T13:45:07.988Z,16.61
2017-10-26T13:46:14.018Z,16.61
2017-10-26T13:47:20.084Z,16.61
2017-10-26T13:48:25.768Z,16.61
2017-10-26T13:49:31.838Z,16.66
2017-10-26T13:50:37.901Z,16.69
2017-10-26T13:51:43.954Z,16.70
2017-10-26T13:52:50.078Z,16.71
2017-10-26T13:53:55.802Z,16.65
2017-10-26T13:55:01.865Z,16.64
2017-10-26T13:56:07.534Z,16.62
2017-10-26T13:57:14.519Z,16.69
2017-10-26T13:58:20.551Z,16.66
2017-10-26T13:59:26.600Z,16.59
2017-10-26T14:00:32.271Z,16.60
2017-10-26T14:01:42.773Z,16.62
2017-10-26T14:02:49.218Z,16.64
2017-10-26T14:03:54.534Z,16.62
2017-10-26T14:05:00.422Z,16.62
2017-10-26T14:06:05.783Z,16.65
2017-10-26T14:07:11.840Z,16.66
2017-10-26T14:08:17.888Z,16.69
2017-10-26T14:09:23.941Z,16.65
2017-10-26T14:10:29.665Z,16.68
2017-10-26T14:11:35.151Z,16.62
2017-10-26T14:12:41.228Z,16.55